Accueil
METAR-TAF:

METAR-TAF

Aéroports :

Conway, Caroline du Sud, États-Unis

latitude: 33-49-42N, longitude: 079-07-19W, altitude: 11 m

Observation

Le bulletin a été fait il y a 20 minutes, à 21:15 UTC
Vent calme
Température 15°C
Humidité 44%
Pression 1020 hPa
Visibilité: 16.1 km
Ciel clair

METAR: KHYW 202115Z AUTO 00000KT 10SM CLR 15/03 A3013 RMK AO2

Heure: 16:35 (21:35 UTC)


TAF: absent

Observations et prévisions météorologiques de plus de 4000 aéroports (messages METAR et TAF).

Les stations disponibles sont représentées par des disques jaunes et rouges sur la carte.

Passer la souris dessus pour voir le nom de la station.

Cliquer dessus pour voir les observations et prévisions météorologiques.

Pour changer de carte: cliquez sur les boutons verts avec une croix noire pour zoomer, sur le bouton vert avec un tiret pour effectuer un zoom arrière, ou sur les flèches vertes pour les cartes adjacentes.


METAR-TAF: